createdAt,value
2023-02-19T08:53:27.926Z,4.97
2023-02-19T08:55:54.547Z,5.10
2023-02-19T08:58:21.180Z,4.20
2023-02-19T09:00:47.950Z,4.97
2023-02-19T09:03:14.652Z,5.80
2023-02-19T09:05:41.644Z,5.73
2023-02-19T09:08:08.738Z,5.17
2023-02-19T09:10:35.335Z,5.47
2023-02-19T09:13:02.684Z,6.00
2023-02-19T09:15:30.157Z,5.80
2023-02-19T09:17:57.802Z,5.63
2023-02-19T09:20:24.403Z,8.13
2023-02-19T09:22:50.991Z,12.93
2023-02-19T09:25:17.610Z,7.57
2023-02-19T09:27:44.162Z,5.73
2023-02-19T09:30:11.261Z,5.20
2023-02-19T09:32:37.835Z,4.83
2023-02-19T09:35:04.764Z,4.37
2023-02-19T09:37:33.790Z,4.77
2023-02-19T09:40:00.688Z,4.63
2023-02-19T09:42:32.486Z,4.37
2023-02-19T09:45:00.399Z,4.47
2023-02-19T09:47:29.097Z,4.17
2023-02-19T09:50:17.398Z,4.87
2023-02-19T09:52:50.201Z,4.43
2023-02-19T09:55:28.912Z,4.30
2023-02-19T09:58:00.852Z,4.33
2023-02-19T10:00:30.526Z,4.63
2023-02-19T10:03:22.718Z,4.40
2023-02-19T10:05:49.772Z,5.07
2023-02-19T10:08:19.948Z,4.17
2023-02-19T10:10:46.647Z,3.80
2023-02-19T10:13:20.698Z,4.33
2023-02-19T10:16:00.307Z,3.93
2023-02-19T10:18:28.866Z,3.77
2023-02-19T10:21:00.306Z,3.20
2023-02-19T10:23:27.164Z,3.33
2023-02-19T10:25:57.684Z,3.23
2023-02-19T10:28:28.416Z,3.63
2023-02-19T10:30:58.497Z,4.60
2023-02-19T10:33:26.227Z,4.50
2023-02-19T10:36:20.447Z,3.80
2023-02-19T10:38:47.954Z,3.77
2023-02-19T10:41:17.734Z,4.03
2023-02-19T10:43:53.311Z,3.53
2023-02-19T10:46:25.680Z,4.00
2023-02-19T10:48:54.302Z,3.73
2023-02-19T10:51:21.931Z,3.73
2023-02-19T10:53:51.640Z,3.13
2023-02-19T10:56:25.206Z,3.47
2023-02-19T10:58:51.981Z,3.10
2023-02-19T11:01:22.471Z,3.07
2023-02-19T11:03:53.406Z,3.43
2023-02-19T11:06:22.026Z,3.67
2023-02-19T11:08:58.007Z,2.80
2023-02-19T11:11:35.949Z,2.60
2023-02-19T11:14:17.360Z,3.20
2023-02-19T11:16:49.383Z,3.03
2023-02-19T11:19:27.343Z,2.93
2023-02-19T11:21:54.398Z,3.23
2023-02-19T11:24:29.669Z,2.80
2023-02-19T11:26:57.841Z,3.20
2023-02-19T11:29:28.654Z,2.67
2023-02-19T11:31:57.968Z,3.00
2023-02-19T11:34:30.042Z,3.13
2023-02-19T11:37:08.619Z,3.73
2023-02-19T11:39:35.884Z,3.10
2023-02-19T11:42:20.728Z,3.10
2023-02-19T11:45:07.207Z,2.80
2023-02-19T11:48:02.855Z,2.40
2023-02-19T11:50:50.700Z,2.77
2023-02-19T11:53:32.392Z,2.20
2023-02-19T11:56:23.854Z,2.43
2023-02-19T11:59:05.598Z,2.40
2023-02-19T12:01:35.306Z,2.20
2023-02-19T12:04:04.581Z,2.23
2023-02-19T12:07:16.472Z,2.40
2023-02-19T12:10:13.098Z,2.30
2023-02-19T12:13:10.839Z,2.30
2023-02-19T12:15:42.667Z,1.90
2023-02-19T12:18:14.067Z,2.13
2023-02-19T12:21:25.382Z,2.20
2023-02-19T12:24:03.742Z,2.60
2023-02-19T12:26:51.627Z,2.00
2023-02-19T12:29:33.817Z,2.37
2023-02-19T12:32:28.188Z,2.37
2023-02-19T12:35:31.977Z,2.30
2023-02-19T12:38:16.523Z,2.20
2023-02-19T12:41:17.098Z,2.30
2023-02-19T12:44:16.190Z,2.30
2023-02-19T12:46:48.156Z,2.87
2023-02-19T12:49:39.885Z,3.27
2023-02-19T12:52:26.920Z,2.67
2023-02-19T12:55:00.470Z,2.97
2023-02-19T12:57:33.855Z,2.20
2023-02-19T13:00:23.563Z,2.60
2023-02-19T13:03:32.641Z,2.50
2023-02-19T13:06:25.922Z,2.50
2023-02-19T13:09:06.266Z,2.23
2023-02-19T13:11:38.384Z,2.10
2023-02-19T13:14:28.622Z,2.23
2023-02-19T13:17:01.699Z,2.80
2023-02-19T13:19:29.671Z,2.37
2023-02-19T13:22:38.090Z,2.17
2023-02-19T13:25:05.259Z,2.30
2023-02-19T13:30:41.200Z,2.53
2023-02-19T13:33:33.716Z,3.23
2023-02-19T13:36:11.956Z,4.83
2023-02-19T13:38:40.953Z,9.10
2023-02-19T13:41:17.872Z,4.10
2023-02-19T13:43:46.891Z,3.57
2023-02-19T13:46:16.440Z,2.93
2023-02-19T13:48:44.513Z,2.43
2023-02-19T13:51:21.654Z,2.37
2023-02-19T13:53:48.332Z,2.33
2023-02-19T13:56:30.271Z,2.67
2023-02-19T13:59:01.539Z,1.73
2023-02-19T14:01:53.081Z,2.60
2023-02-19T14:04:25.020Z,2.80
2023-02-19T14:07:03.649Z,2.53
2023-02-19T14:09:44.012Z,1.57
2023-02-19T14:12:10.495Z,2.23
2023-02-19T14:14:57.381Z,1.80
2023-02-19T14:17:34.903Z,1.60
2023-02-19T14:20:40.985Z,1.73
2023-02-19T14:23:18.376Z,2.30
2023-02-19T14:25:52.046Z,2.00
2023-02-19T14:28:27.576Z,1.90
2023-02-19T14:30:55.914Z,2.10
2023-02-19T14:33:28.786Z,1.90
2023-02-19T14:36:05.924Z,1.70
2023-02-19T14:38:43.753Z,2.00
2023-02-19T14:41:12.941Z,1.93
2023-02-19T14:43:39.946Z,1.80
2023-02-19T14:46:16.490Z,2.10
2023-02-19T14:48:45.965Z,2.10
2023-02-19T14:51:22.964Z,1.80
2023-02-19T14:53:49.853Z,2.07
2023-02-19T14:56:26.324Z,2.10
2023-02-19T14:59:28.706Z,2.10
2023-02-19T15:02:01.314Z,1.33
2023-02-19T15:04:31.452Z,1.40
2023-02-19T15:07:01.977Z,1.50
2023-02-19T15:09:41.415Z,1.30
2023-02-19T15:12:08.403Z,1.70
2023-02-19T15:14:34.939Z,1.87
2023-02-19T15:17:04.276Z,1.70
2023-02-19T15:19:35.074Z,1.80
2023-02-19T15:22:02.580Z,1.53
2023-02-19T15:24:29.439Z,1.97
2023-02-19T15:26:57.542Z,1.77
2023-02-19T15:29:26.407Z,2.10
2023-02-19T15:31:59.854Z,2.03
2023-02-19T15:34:31.388Z,1.53
2023-02-19T15:37:00.469Z,1.93
2023-02-19T15:39:41.788Z,3.23
2023-02-19T15:42:11.175Z,2.53
2023-02-19T15:45:01.466Z,2.13
2023-02-19T15:47:33.466Z,1.87
2023-02-19T15:50:13.139Z,1.80
2023-02-19T15:52:46.472Z,1.90
2023-02-19T15:55:37.044Z,2.90
2023-02-19T15:58:12.878Z,2.57
2023-02-19T16:00:45.678Z,2.53
2023-02-19T16:03:20.413Z,2.30
2023-02-19T16:05:59.478Z,2.43
2023-02-19T16:08:34.470Z,2.30
2023-02-19T16:11:03.579Z,2.90
2023-02-19T16:13:32.965Z,3.80
2023-02-19T16:16:06.082Z,2.83
2023-02-19T16:18:33.411Z,3.10
2023-02-19T16:21:00.090Z,3.17
2023-02-19T16:23:27.417Z,3.10
2023-02-19T16:26:01.504Z,2.53
2023-02-19T16:28:29.741Z,2.60
2023-02-19T16:30:58.057Z,3.50
2023-02-19T16:33:31.982Z,2.97
2023-02-19T16:35:59.082Z,2.83
2023-02-19T16:38:25.664Z,3.30
2023-02-19T16:40:52.380Z,3.27
2023-02-19T16:43:31.231Z,3.07
2023-02-19T16:45:58.659Z,3.20
2023-02-19T16:48:25.493Z,2.83
2023-02-19T16:50:52.255Z,4.73
2023-02-19T16:53:25.353Z,10.77
2023-02-19T16:55:52.394Z,11.00
2023-02-19T16:58:19.134Z,9.00
2023-02-19T17:00:46.119Z,6.60
2023-02-19T17:03:16.512Z,4.83
2023-02-19T17:05:43.183Z,4.83
2023-02-19T17:08:38.634Z,3.83
2023-02-19T17:11:07.578Z,3.63
2023-02-19T17:13:34.107Z,4.30
2023-02-19T17:16:01.239Z,3.27
2023-02-19T17:18:28.111Z,3.00
2023-02-19T17:21:14.472Z,3.60
2023-02-19T17:23:41.055Z,3.70
2023-02-19T17:26:12.016Z,3.20
2023-02-19T17:28:41.264Z,2.67
2023-02-19T17:31:09.764Z,2.00
2023-02-19T17:33:37.145Z,2.53
2023-02-19T17:36:04.153Z,3.40
2023-02-19T17:38:30.671Z,4.00
2023-02-19T17:40:57.845Z,2.70
2023-02-19T17:43:25.523Z,3.37
2023-02-19T17:45:52.048Z,2.90
2023-02-19T17:48:18.596Z,3.30
2023-02-19T17:50:45.211Z,3.03
2023-02-19T17:53:11.928Z,2.77
2023-02-19T17:55:38.476Z,2.63
2023-02-19T17:58:05.618Z,2.00
2023-02-19T18:00:32.296Z,2.50
2023-02-19T18:02:58.774Z,2.73
2023-02-19T18:05:25.460Z,2.47
2023-02-19T18:07:51.982Z,2.70
2023-02-19T18:10:19.746Z,3.60
2023-02-19T18:12:46.510Z,9.40
2023-02-19T18:15:18.856Z,6.13
2023-02-19T18:17:45.618Z,4.20
2023-02-19T18:20:17.861Z,4.50
2023-02-19T18:22:44.513Z,4.30
2023-02-19T18:25:11.695Z,4.23
2023-02-19T18:27:38.512Z,4.13
2023-02-19T18:30:06.052Z,5.07
2023-02-19T18:32:32.693Z,5.00
2023-02-19T18:35:02.615Z,6.37
2023-02-19T18:37:32.960Z,4.70
2023-02-19T18:40:00.418Z,4.93
2023-02-19T18:42:27.316Z,4.67
2023-02-19T18:44:54.939Z,3.47
2023-02-19T18:47:22.732Z,3.87
2023-02-19T18:49:50.540Z,3.70
2023-02-19T18:52:21.982Z,4.03
2023-02-19T18:54:50.657Z,3.93
2023-02-19T18:57:18.763Z,3.80
2023-02-19T18:59:45.608Z,3.90
2023-02-19T19:02:12.508Z,3.47
2023-02-19T19:04:39.347Z,3.17
2023-02-19T19:07:06.547Z,3.50
2023-02-19T19:09:33.950Z,3.33
2023-02-19T19:12:00.797Z,4.63
2023-02-19T19:14:27.394Z,4.50
2023-02-19T19:16:54.233Z,5.23
2023-02-19T19:19:20.798Z,5.57
2023-02-19T19:21:53.301Z,5.33
2023-02-19T19:24:21.316Z,4.50
2023-02-19T19:26:48.287Z,5.33
2023-02-19T19:29:16.139Z,5.03
2023-02-19T19:31:43.443Z,5.20
2023-02-19T19:34:10.829Z,5.33
2023-02-19T19:36:37.875Z,4.80
2023-02-19T19:39:04.704Z,5.20
2023-02-19T19:41:31.577Z,3.77
2023-02-19T19:43:58.237Z,3.10
2023-02-19T19:46:25.009Z,3.33
2023-02-19T19:48:52.853Z,3.00
2023-02-19T19:51:19.640Z,3.77
2023-02-19T19:53:49.580Z,2.80
2023-02-19T19:56:17.458Z,4.07
2023-02-19T19:58:43.974Z,7.03
2023-02-19T20:01:11.040Z,5.23
2023-02-19T20:03:37.996Z,4.80
2023-02-19T20:06:05.005Z,3.60
2023-02-19T20:08:31.661Z,3.67
2023-02-19T20:10:58.284Z,3.33
2023-02-19T20:13:26.439Z,3.60
2023-02-19T20:15:53.038Z,3.40
2023-02-19T20:18:21.645Z,3.13
2023-02-19T20:20:48.281Z,3.00
2023-02-19T20:23:14.843Z,2.60
2023-02-19T20:25:41.385Z,2.77
2023-02-19T20:28:08.093Z,2.87
2023-02-19T20:30:35.442Z,2.37
2023-02-19T20:33:02.217Z,2.97
2023-02-19T20:35:29.865Z,2.57
2023-02-19T20:37:57.738Z,2.63
2023-02-19T20:40:27.423Z,2.50
2023-02-19T20:42:54.285Z,2.50
2023-02-19T20:45:21.362Z,2.60
2023-02-19T20:47:48.047Z,2.30
2023-02-19T20:50:17.229Z,2.10
2023-02-19T20:52:43.872Z,2.90
2023-02-19T20:55:10.432Z,2.73
2023-02-19T20:57:37.747Z,2.50
2023-02-19T21:00:05.487Z,2.13
2023-02-19T21:02:32.135Z,2.40
2023-02-19T21:04:58.840Z,2.53
2023-02-19T21:07:26.044Z,2.60
2023-02-19T21:09:52.940Z,3.00
2023-02-19T21:12:20.733Z,2.80
2023-02-19T21:14:47.574Z,3.40
2023-02-19T21:17:14.049Z,3.07
2023-02-19T21:19:40.577Z,3.17
2023-02-19T21:22:07.455Z,3.50
2023-02-19T21:24:34.011Z,4.90
2023-02-19T21:27:00.479Z,4.87
2023-02-19T21:29:27.186Z,4.17
2023-02-19T21:31:56.099Z,4.70
2023-02-19T21:34:27.989Z,3.80
2023-02-19T21:36:55.510Z,4.27
2023-02-19T21:39:24.026Z,3.57
2023-02-19T21:41:50.515Z,3.43
2023-02-19T21:44:17.238Z,3.00
2023-02-19T21:46:43.708Z,3.80
2023-02-19T21:49:11.697Z,3.37
2023-02-19T21:51:40.461Z,3.60
2023-02-19T21:54:08.246Z,3.33
2023-02-19T21:56:36.569Z,3.47
2023-02-19T21:59:03.563Z,2.90
2023-02-19T22:01:35.271Z,3.10
2023-02-19T22:04:01.903Z,2.97
2023-02-19T22:06:30.069Z,3.20
2023-02-19T22:08:58.699Z,3.03
2023-02-19T22:11:25.635Z,2.90
2023-02-19T22:13:52.367Z,3.00
2023-02-19T22:16:19.409Z,2.67
2023-02-19T22:18:49.715Z,2.87
2023-02-19T22:21:16.824Z,2.53
2023-02-19T22:23:45.412Z,2.50
2023-02-19T22:26:29.120Z,2.10
2023-02-19T22:28:57.040Z,2.37
2023-02-19T22:31:24.976Z,2.90
2023-02-19T22:33:51.953Z,3.17
2023-02-19T22:36:23.239Z,3.20
2023-02-19T22:38:50.239Z,3.27
2023-02-19T22:41:17.557Z,3.07
2023-02-19T22:43:44.350Z,2.43
2023-02-19T22:46:13.773Z,2.60
2023-02-19T22:48:40.485Z,2.90
2023-02-19T22:51:13.281Z,3.60
2023-02-19T22:53:44.804Z,2.90
2023-02-19T22:56:12.330Z,3.20
2023-02-19T22:58:39.477Z,3.03
2023-02-19T23:01:06.370Z,3.30
2023-02-19T23:03:32.901Z,3.60
2023-02-19T23:06:03.290Z,3.73
2023-02-19T23:08:29.818Z,4.43
2023-02-19T23:10:57.106Z,4.50
2023-02-19T23:13:23.892Z,3.90
2023-02-19T23:15:50.476Z,3.83
2023-02-19T23:18:16.976Z,3.33
2023-02-19T23:20:43.447Z,3.80
2023-02-19T23:23:09.920Z,3.77
2023-02-19T23:25:36.342Z,3.30
2023-02-19T23:28:02.920Z,3.53
2023-02-19T23:30:29.493Z,4.20
2023-02-19T23:32:56.277Z,4.67
2023-02-19T23:35:23.396Z,3.47
2023-02-19T23:37:49.942Z,3.90
2023-02-19T23:40:16.837Z,4.03
2023-02-19T23:42:43.365Z,3.90
2023-02-19T23:45:09.893Z,3.37
2023-02-19T23:47:36.356Z,3.03
2023-02-19T23:50:02.872Z,3.10
2023-02-19T23:52:29.390Z,3.40
2023-02-19T23:54:56.030Z,2.80
2023-02-19T23:57:22.605Z,3.00
2023-02-19T23:59:49.093Z,2.80
